createdAt,value
2022-08-03T00:00:53.764Z,9.90
2022-08-03T00:06:04.666Z,9.40
2022-08-03T00:11:07.932Z,9.50
2022-08-03T00:16:11.432Z,11.60
2022-08-03T00:21:13.946Z,13.10
2022-08-03T00:26:18.382Z,14.07
2022-08-03T00:31:38.023Z,12.60
2022-08-03T00:36:43.874Z,13.77
2022-08-03T00:41:46.473Z,11.47
2022-08-03T00:46:49.255Z,9.80
2022-08-03T00:51:52.125Z,12.30
2022-08-03T00:56:59.595Z,18.47
2022-08-03T01:02:03.438Z,17.47
2022-08-03T01:07:22.627Z,11.47
2022-08-03T01:12:30.082Z,10.00
2022-08-03T01:17:55.268Z,10.00
2022-08-03T01:23:22.290Z,12.47
2022-08-03T01:28:42.083Z,12.33
2022-08-03T01:33:50.018Z,8.37
2022-08-03T01:38:59.101Z,10.97
2022-08-03T01:44:29.499Z,13.07
2022-08-03T01:49:28.721Z,15.03
2022-08-03T01:54:34.893Z,14.83
2022-08-03T01:59:39.464Z,11.50
2022-08-03T02:04:43.811Z,7.43
2022-08-03T02:09:51.725Z,9.67
2022-08-03T02:14:56.644Z,10.20
2022-08-03T02:20:01.022Z,9.20
2022-08-03T02:25:03.829Z,10.60
2022-08-03T02:30:09.214Z,8.83
2022-08-03T02:35:14.260Z,12.83
2022-08-03T02:40:20.037Z,9.40
2022-08-03T02:45:25.408Z,8.90
2022-08-03T02:50:30.457Z,15.57
2022-08-03T02:55:35.984Z,9.67
2022-08-03T03:00:46.444Z,8.70
2022-08-03T03:05:54.898Z,9.53
2022-08-03T03:11:01.829Z,11.17
2022-08-03T03:16:06.220Z,12.63
2022-08-03T03:21:10.455Z,9.60
2022-08-03T03:26:14.754Z,8.47
2022-08-03T03:31:17.526Z,10.77
2022-08-03T03:36:20.264Z,11.57
2022-08-03T03:41:22.983Z,11.03
2022-08-03T03:46:26.106Z,13.27
2022-08-03T03:51:28.772Z,14.03
2022-08-03T03:56:31.410Z,13.30
2022-08-03T04:01:34.121Z,8.77
2022-08-03T04:07:08.878Z,13.23
2022-08-03T04:12:11.754Z,13.53
2022-08-03T04:17:16.868Z,13.20
2022-08-03T04:22:24.302Z,17.37
2022-08-03T04:27:32.918Z,13.93
2022-08-03T04:32:41.868Z,11.30
2022-08-03T04:37:53.146Z,10.07
2022-08-03T04:42:56.738Z,9.53
2022-08-03T04:48:02.106Z,11.20
2022-08-03T04:53:06.665Z,14.80
2022-08-03T04:58:09.893Z,12.60
2022-08-03T05:03:20.406Z,18.93
2022-08-03T05:08:28.075Z,18.40
2022-08-03T05:13:31.114Z,11.15
2022-08-03T05:18:33.813Z,8.33
2022-08-03T05:23:36.590Z,9.25
2022-08-03T05:28:39.526Z,12.07
2022-08-03T05:33:54.626Z,19.38
2022-08-03T05:39:00.913Z,20.35
2022-08-03T05:44:05.527Z,16.00
2022-08-03T05:49:08.305Z,13.10
2022-08-03T05:54:11.236Z,15.57
2022-08-03T05:59:37.086Z,12.85
2022-08-03T06:04:37.414Z,10.07
2022-08-03T06:10:37.650Z,9.52
2022-08-03T06:15:05.196Z,8.25
2022-08-03T06:20:13.594Z,10.18
2022-08-03T06:25:16.931Z,9.52
2022-08-03T06:30:26.850Z,7.03
2022-08-03T06:35:30.776Z,9.07
2022-08-03T06:40:39.970Z,8.90
2022-08-03T06:45:42.777Z,8.35
2022-08-03T06:50:50.559Z,7.60
2022-08-03T06:55:54.963Z,5.78
2022-08-03T07:00:58.047Z,5.70
2022-08-03T07:06:00.920Z,6.30
2022-08-03T07:11:03.592Z,26.75
2022-08-03T07:16:06.962Z,8.00
2022-08-03T07:21:11.169Z,5.65
2022-08-03T07:26:13.785Z,6.22
2022-08-03T07:31:16.370Z,9.10
2022-08-03T07:36:18.973Z,15.48
2022-08-03T07:41:21.487Z,6.53
2022-08-03T07:46:24.181Z,6.07
2022-08-03T07:51:29.446Z,6.07
2022-08-03T07:56:32.240Z,5.68
2022-08-03T08:01:37.372Z,5.28
2022-08-03T08:06:39.929Z,6.95
2022-08-03T08:11:42.503Z,7.55
2022-08-03T08:16:45.036Z,5.72
2022-08-03T08:21:53.791Z,4.57
2022-08-03T08:28:29.547Z,6.53
2022-08-03T08:33:05.072Z,8.45
2022-08-03T08:38:07.767Z,9.10
2022-08-03T08:43:10.428Z,5.20
2022-08-03T08:48:14.107Z,4.60
2022-08-03T08:53:19.837Z,11.77
2022-08-03T08:58:28.725Z,4.60
2022-08-03T09:03:34.421Z,3.67
2022-08-03T09:08:37.100Z,4.18
2022-08-03T09:13:40.077Z,5.15
2022-08-03T09:18:53.422Z,6.53
2022-08-03T09:24:03.842Z,6.88
2022-08-03T09:29:14.858Z,4.38
2022-08-03T09:34:18.711Z,4.32
2022-08-03T09:39:41.467Z,5.10
2022-08-03T09:44:47.248Z,23.25
2022-08-03T09:49:59.067Z,7.03
2022-08-03T09:56:30.653Z,8.10
2022-08-03T10:00:30.915Z,6.40
2022-08-03T10:05:33.474Z,5.63
2022-08-03T10:10:44.039Z,4.72
2022-08-03T10:16:21.275Z,5.63
2022-08-03T10:21:16.317Z,5.93
2022-08-03T10:26:21.945Z,3.47
2022-08-03T10:31:25.205Z,6.95
2022-08-03T10:36:32.088Z,7.95
2022-08-03T10:41:39.917Z,11.25
2022-08-03T10:46:45.340Z,3.28
2022-08-03T10:51:52.925Z,2.72
2022-08-03T10:57:15.963Z,6.80
2022-08-03T11:02:20.889Z,2.55
2022-08-03T11:07:24.913Z,2.60
2022-08-03T11:12:32.972Z,2.75
2022-08-03T11:17:46.881Z,2.78
2022-08-03T11:23:01.145Z,5.88
2022-08-03T11:28:27.144Z,8.00
2022-08-03T11:33:30.699Z,5.00
2022-08-03T11:38:33.188Z,3.45
2022-08-03T11:43:36.895Z,5.03
2022-08-03T11:49:09.442Z,5.88
2022-08-03T11:54:22.776Z,6.75
2022-08-03T11:59:35.438Z,5.40
2022-08-03T12:04:58.906Z,7.30
2022-08-03T12:10:08.305Z,5.22
2022-08-03T12:15:14.208Z,8.40
2022-08-03T12:20:34.409Z,9.65
2022-08-03T12:25:41.295Z,5.05
2022-08-03T12:30:44.518Z,20.02
2022-08-03T12:35:52.588Z,7.22
2022-08-03T12:41:02.188Z,3.60
2022-08-03T12:46:16.392Z,5.05
2022-08-03T12:51:18.975Z,6.60
2022-08-03T12:56:25.754Z,5.93
2022-08-03T13:01:56.369Z,5.93
2022-08-03T13:07:03.713Z,3.60
2022-08-03T13:12:10.511Z,7.00
2022-08-03T13:17:13.220Z,5.82
2022-08-03T13:22:19.648Z,9.25
2022-08-03T13:28:04.322Z,12.02
2022-08-03T13:32:45.172Z,3.85
2022-08-03T13:37:48.941Z,7.32
2022-08-03T13:42:51.737Z,5.05
2022-08-03T13:47:54.273Z,5.82
2022-08-03T13:52:57.505Z,12.35
2022-08-03T13:58:06.630Z,5.05
2022-08-03T14:03:14.036Z,4.85
2022-08-03T14:08:17.280Z,7.07
2022-08-03T14:13:19.903Z,3.70
2022-08-03T14:18:28.576Z,6.20
2022-08-03T14:23:39.916Z,7.43
2022-08-03T14:28:42.506Z,3.85
2022-08-03T14:33:45.088Z,4.07
2022-08-03T14:38:47.589Z,5.93
2022-08-03T14:44:01.302Z,7.20
2022-08-03T14:50:37.960Z,9.27
2022-08-03T14:54:30.979Z,3.22
2022-08-03T14:59:57.445Z,9.43
2022-08-03T15:04:59.992Z,3.88
2022-08-03T15:10:02.662Z,4.25
2022-08-03T15:15:05.513Z,8.30
2022-08-03T15:20:23.378Z,8.75
2022-08-03T15:26:30.330Z,5.28
2022-08-03T15:30:54.754Z,6.82
2022-08-03T15:35:57.646Z,3.45
2022-08-03T15:41:00.460Z,6.72
2022-08-03T15:46:28.288Z,5.88
2022-08-03T15:51:25.795Z,9.13
2022-08-03T15:56:28.412Z,4.50
2022-08-03T16:01:31.205Z,3.38
2022-08-03T16:06:44.376Z,5.95
2022-08-03T16:11:46.879Z,6.25
2022-08-03T16:16:49.419Z,4.07
2022-08-03T16:21:51.882Z,9.93
2022-08-03T16:26:55.120Z,6.18
2022-08-03T16:31:57.675Z,4.85
2022-08-03T16:37:11.740Z,8.75
2022-08-03T16:42:22.825Z,4.68
2022-08-03T16:47:25.304Z,4.00
2022-08-03T16:52:27.749Z,4.15
2022-08-03T16:57:59.549Z,6.47
2022-08-03T17:02:54.526Z,10.07
2022-08-03T17:07:58.785Z,5.95
2022-08-03T17:13:01.327Z,3.70
2022-08-03T17:18:11.941Z,3.08
2022-08-03T17:23:48.648Z,7.32
2022-08-03T17:28:57.557Z,11.50
2022-08-03T17:34:04.433Z,90.57
2022-08-03T17:39:09.546Z,74.88
2022-08-03T17:44:15.738Z,37.25
2022-08-03T17:49:31.156Z,35.22
2022-08-03T17:55:50.622Z,33.33
2022-08-03T18:00:45.620Z,26.52
2022-08-03T18:06:10.493Z,16.83
2022-08-03T18:11:16.427Z,24.13
2022-08-03T18:16:32.627Z,20.08
2022-08-03T18:22:03.397Z,34.83
2022-08-03T18:27:03.826Z,20.02
2022-08-03T18:32:16.736Z,18.40
2022-08-03T18:37:25.291Z,26.75
2022-08-03T18:42:28.478Z,12.18
2022-08-03T18:47:52.397Z,12.65
2022-08-03T18:53:21.305Z,13.60
2022-08-03T18:58:39.923Z,15.95
2022-08-03T19:03:48.290Z,17.58
2022-08-03T19:08:59.907Z,11.20
2022-08-03T19:14:05.322Z,37.30
2022-08-03T19:19:17.394Z,35.95
2022-08-03T19:24:23.379Z,23.75
2022-08-03T19:29:58.051Z,32.63
2022-08-03T19:34:59.990Z,54.50
2022-08-03T19:40:02.885Z,38.83
2022-08-03T19:50:32.444Z,20.30
2022-08-03T19:55:38.024Z,15.23
2022-08-03T20:00:40.830Z,18.13
2022-08-03T20:05:52.305Z,15.65
2022-08-03T20:10:57.358Z,21.95
2022-08-03T20:15:59.777Z,27.15
2022-08-03T20:21:14.917Z,17.50
2022-08-03T20:26:20.365Z,16.42
2022-08-03T20:31:32.640Z,13.65
2022-08-03T20:36:38.968Z,15.15
2022-08-03T20:41:42.011Z,13.77
2022-08-03T20:46:53.495Z,12.68
2022-08-03T20:52:06.963Z,16.92
2022-08-03T20:57:21.621Z,19.48
2022-08-03T21:02:30.273Z,17.83
2022-08-03T21:08:05.025Z,12.35
2022-08-03T21:13:09.042Z,18.50
2022-08-03T21:13:18.143Z,10.70
2022-08-03T21:18:25.260Z,11.00
2022-08-03T21:23:39.827Z,11.90
2022-08-03T21:28:53.570Z,12.27
2022-08-03T21:33:58.129Z,10.00
2022-08-03T21:39:04.089Z,14.65
2022-08-03T21:44:08.103Z,9.48
2022-08-03T21:50:05.806Z,10.57
2022-08-03T21:54:38.518Z,9.32
2022-08-03T21:59:48.172Z,11.70
2022-08-03T22:04:57.018Z,10.30
2022-08-03T22:10:01.873Z,11.23
2022-08-03T22:15:07.845Z,13.57
2022-08-03T22:20:13.143Z,12.57
2022-08-03T22:25:16.444Z,9.75
2022-08-03T22:30:20.151Z,10.00
2022-08-03T22:35:26.078Z,9.23
2022-08-03T22:40:28.932Z,10.35
2022-08-03T22:46:07.892Z,9.95
2022-08-03T22:50:56.758Z,9.18
2022-08-03T22:55:59.560Z,9.98
2022-08-03T23:01:05.994Z,10.30
2022-08-03T23:06:09.592Z,11.38
2022-08-03T23:11:12.955Z,22.45
2022-08-03T23:16:28.934Z,19.88
2022-08-03T23:22:00.243Z,15.32
2022-08-03T23:26:56.564Z,11.07
2022-08-03T23:32:01.161Z,10.95
2022-08-03T23:37:05.608Z,12.48
2022-08-03T23:42:09.559Z,10.45
2022-08-03T23:47:13.641Z,9.95
2022-08-03T23:52:22.171Z,12.18
2022-08-03T23:57:40.108Z,9.88
